sensor_id;sensor_type;location;lat;lon;timestamp;P1;durP1;ratioP1;P2;durP2;ratioP2
61531;SDS011;47397;48.194;11.632;2023-05-19T00:00:20;7.97;;;3.72;;
61531;SDS011;47397;48.194;11.632;2023-05-19T00:01:21;7.15;;;4.05;;
61531;SDS011;47397;48.194;11.632;2023-05-19T00:02:23;6.78;;;3.60;;
61531;SDS011;47397;48.194;11.632;2023-05-19T00:03:24;9.07;;;4.28;;
61531;SDS011;47397;48.194;11.632;2023-05-19T00:04:25;5.88;;;3.70;;
61531;SDS011;47397;48.194;11.632;2023-05-19T00:05:26;8.50;;;4.03;;
61531;SDS011;47397;48.194;11.632;2023-05-19T00:06:28;6.97;;;4.43;;
61531;SDS011;47397;48.194;11.632;2023-05-19T00:07:29;6.10;;;3.40;;
61531;SDS011;47397;48.194;11.632;2023-05-19T00:08:30;8.32;;;3.67;;
61531;SDS011;47397;48.194;11.632;2023-05-19T00:09:32;7.30;;;4.00;;
61531;SDS011;47397;48.194;11.632;2023-05-19T00:10:33;6.65;;;3.92;;
61531;SDS011;47397;48.194;11.632;2023-05-19T00:11:35;5.38;;;3.50;;
61531;SDS011;47397;48.194;11.632;2023-05-19T00:12:37;10.82;;;3.78;;
61531;SDS011;47397;48.194;11.632;2023-05-19T00:13:37;6.38;;;3.45;;
61531;SDS011;47397;48.194;11.632;2023-05-19T00:14:38;6.88;;;3.72;;
61531;SDS011;47397;48.194;11.632;2023-05-19T00:15:39;9.48;;;4.55;;
61531;SDS011;47397;48.194;11.632;2023-05-19T00:16:40;8.30;;;3.67;;
61531;SDS011;47397;48.194;11.632;2023-05-19T00:17:42;7.22;;;3.65;;
61531;SDS011;47397;48.194;11.632;2023-05-19T00:18:43;8.40;;;3.88;;
61531;SDS011;47397;48.194;11.632;2023-05-19T00:19:43;7.72;;;3.80;;
61531;SDS011;47397;48.194;11.632;2023-05-19T00:20:43;8.00;;;3.55;;
61531;SDS011;47397;48.194;11.632;2023-05-19T00:21:44;6.45;;;3.90;;
61531;SDS011;47397;48.194;11.632;2023-05-19T00:22:44;8.93;;;3.72;;
61531;SDS011;47397;48.194;11.632;2023-05-19T00:23:45;8.88;;;4.05;;
61531;SDS011;47397;48.194;11.632;2023-05-19T00:24:45;10.77;;;4.20;;
61531;SDS011;47397;48.194;11.632;2023-05-19T00:25:46;9.40;;;4.43;;
61531;SDS011;47397;48.194;11.632;2023-05-19T00:26:46;7.78;;;3.90;;
61531;SDS011;47397;48.194;11.632;2023-05-19T00:27:46;8.30;;;3.85;;
61531;SDS011;47397;48.194;11.632;2023-05-19T00:28:47;5.32;;;3.65;;
61531;SDS011;47397;48.194;11.632;2023-05-19T00:29:48;7.13;;;3.97;;
61531;SDS011;47397;48.194;11.632;2023-05-19T00:30:49;5.55;;;3.38;;
61531;SDS011;47397;48.194;11.632;2023-05-19T00:31:49;6.50;;;3.42;;
61531;SDS011;47397;48.194;11.632;2023-05-19T00:32:51;9.90;;;4.13;;
61531;SDS011;47397;48.194;11.632;2023-05-19T00:33:51;6.75;;;3.33;;
61531;SDS011;47397;48.194;11.632;2023-05-19T00:34:52;6.40;;;3.83;;
61531;SDS011;47397;48.194;11.632;2023-05-19T00:35:52;5.45;;;3.58;;
61531;SDS011;47397;48.194;11.632;2023-05-19T00:36:53;8.25;;;4.00;;
61531;SDS011;47397;48.194;11.632;2023-05-19T00:37:53;9.50;;;3.85;;
61531;SDS011;47397;48.194;11.632;2023-05-19T00:38:53;8.05;;;3.85;;
61531;SDS011;47397;48.194;11.632;2023-05-19T00:39:54;7.28;;;3.35;;
61531;SDS011;47397;48.194;11.632;2023-05-19T00:40:54;9.68;;;3.55;;
61531;SDS011;47397;48.194;11.632;2023-05-19T00:41:55;7.53;;;3.58;;
61531;SDS011;47397;48.194;11.632;2023-05-19T00:42:55;6.60;;;3.05;;
61531;SDS011;47397;48.194;11.632;2023-05-19T00:43:56;7.57;;;3.45;;
61531;SDS011;47397;48.194;11.632;2023-05-19T00:44:56;7.20;;;3.60;;
61531;SDS011;47397;48.194;11.632;2023-05-19T00:45:57;8.75;;;3.70;;
61531;SDS011;47397;48.194;11.632;2023-05-19T00:46:57;7.30;;;4.03;;
61531;SDS011;47397;48.194;11.632;2023-05-19T00:47:59;6.03;;;3.90;;
61531;SDS011;47397;48.194;11.632;2023-05-19T00:48:59;6.35;;;3.47;;
61531;SDS011;47397;48.194;11.632;2023-05-19T00:50:00;6.60;;;4.00;;
61531;SDS011;47397;48.194;11.632;2023-05-19T00:51:00;6.43;;;3.33;;
61531;SDS011;47397;48.194;11.632;2023-05-19T00:52:04;8.77;;;4.03;;
61531;SDS011;47397;48.194;11.632;2023-05-19T00:53:06;6.55;;;3.60;;
61531;SDS011;47397;48.194;11.632;2023-05-19T00:54:06;7.80;;;4.05;;
61531;SDS011;47397;48.194;11.632;2023-05-19T00:55:07;9.20;;;3.83;;
61531;SDS011;47397;48.194;11.632;2023-05-19T00:56:08;7.50;;;3.75;;
61531;SDS011;47397;48.194;11.632;2023-05-19T00:57:09;7.13;;;3.55;;
61531;SDS011;47397;48.194;11.632;2023-05-19T00:58:10;9.07;;;3.42;;
61531;SDS011;47397;48.194;11.632;2023-05-19T00:59:11;7.03;;;3.55;;
61531;SDS011;47397;48.194;11.632;2023-05-19T01:00:12;5.38;;;3.30;;
61531;SDS011;47397;48.194;11.632;2023-05-19T01:01:13;6.55;;;3.75;;
61531;SDS011;47397;48.194;11.632;2023-05-19T01:02:14;7.20;;;4.40;;
61531;SDS011;47397;48.194;11.632;2023-05-19T01:03:15;7.30;;;3.67;;
61531;SDS011;47397;48.194;11.632;2023-05-19T01:04:17;6.18;;;3.75;;
61531;SDS011;47397;48.194;11.632;2023-05-19T01:05:18;6.72;;;3.50;;
61531;SDS011;47397;48.194;11.632;2023-05-19T01:06:18;8.10;;;4.30;;
61531;SDS011;47397;48.194;11.632;2023-05-19T01:07:19;6.95;;;4.07;;
61531;SDS011;47397;48.194;11.632;2023-05-19T01:08:19;7.57;;;4.05;;
61531;SDS011;47397;48.194;11.632;2023-05-19T01:09:20;9.38;;;4.35;;
61531;SDS011;47397;48.194;11.632;2023-05-19T01:10:20;7.28;;;4.13;;
61531;SDS011;47397;48.194;11.632;2023-05-19T01:11:21;7.88;;;4.25;;
61531;SDS011;47397;48.194;11.632;2023-05-19T01:12:22;7.30;;;3.80;;
61531;SDS011;47397;48.194;11.632;2023-05-19T01:13:22;8.02;;;4.13;;
61531;SDS011;47397;48.194;11.632;2023-05-19T01:14:23;8.07;;;4.50;;
61531;SDS011;47397;48.194;11.632;2023-05-19T01:15:23;8.02;;;4.30;;
61531;SDS011;47397;48.194;11.632;2023-05-19T01:16:26;6.75;;;3.55;;
61531;SDS011;47397;48.194;11.632;2023-05-19T01:17:32;9.40;;;3.92;;
61531;SDS011;47397;48.194;11.632;2023-05-19T01:18:46;10.35;;;4.18;;
61531;SDS011;47397;48.194;11.632;2023-05-19T01:19:52;6.25;;;4.38;;
61531;SDS011;47397;48.194;11.632;2023-05-19T01:21:02;6.88;;;4.63;;
61531;SDS011;47397;48.194;11.632;2023-05-19T01:22:19;7.57;;;4.03;;
61531;SDS011;47397;48.194;11.632;2023-05-19T01:23:27;10.30;;;4.20;;
61531;SDS011;47397;48.194;11.632;2023-05-19T01:24:39;6.95;;;3.92;;
61531;SDS011;47397;48.194;11.632;2023-05-19T01:26:22;7.97;;;3.88;;
61531;SDS011;47397;48.194;11.632;2023-05-19T01:27:41;7.70;;;4.00;;
61531;SDS011;47397;48.194;11.632;2023-05-19T01:28:55;5.82;;;3.67;;
61531;SDS011;47397;48.194;11.632;2023-05-19T01:30:17;7.07;;;3.97;;
61531;SDS011;47397;48.194;11.632;2023-05-19T01:31:24;9.43;;;4.38;;
61531;SDS011;47397;48.194;11.632;2023-05-19T01:32:25;7.05;;;4.03;;
61531;SDS011;47397;48.194;11.632;2023-05-19T01:33:29;6.30;;;3.42;;
61531;SDS011;47397;48.194;11.632;2023-05-19T01:34:31;5.40;;;3.75;;
61531;SDS011;47397;48.194;11.632;2023-05-19T01:35:34;9.80;;;4.22;;
61531;SDS011;47397;48.194;11.632;2023-05-19T01:36:35;7.55;;;4.03;;
61531;SDS011;47397;48.194;11.632;2023-05-19T01:37:37;7.82;;;3.63;;
61531;SDS011;47397;48.194;11.632;2023-05-19T01:38:40;8.95;;;4.20;;
61531;SDS011;47397;48.194;11.632;2023-05-19T01:39:42;7.03;;;3.70;;
61531;SDS011;47397;48.194;11.632;2023-05-19T01:40:44;6.30;;;3.75;;
61531;SDS011;47397;48.194;11.632;2023-05-19T01:41:46;7.15;;;3.67;;
61531;SDS011;47397;48.194;11.632;2023-05-19T01:42:47;6.20;;;3.80;;
61531;SDS011;47397;48.194;11.632;2023-05-19T01:43:49;6.03;;;3.92;;
61531;SDS011;47397;48.194;11.632;2023-05-19T01:44:50;6.70;;;3.40;;
61531;SDS011;47397;48.194;11.632;2023-05-19T01:45:53;6.32;;;3.70;;
61531;SDS011;47397;48.194;11.632;2023-05-19T01:46:53;6.43;;;4.38;;
61531;SDS011;47397;48.194;11.632;2023-05-19T01:47:55;7.47;;;3.88;;
61531;SDS011;47397;48.194;11.632;2023-05-19T01:48:56;7.72;;;4.47;;
61531;SDS011;47397;48.194;11.632;2023-05-19T01:49:57;6.35;;;4.28;;
61531;SDS011;47397;48.194;11.632;2023-05-19T01:50:58;7.80;;;4.03;;
61531;SDS011;47397;48.194;11.632;2023-05-19T01:51:58;6.78;;;3.95;;
61531;SDS011;47397;48.194;11.632;2023-05-19T01:52:59;6.05;;;3.70;;
61531;SDS011;47397;48.194;11.632;2023-05-19T01:54:00;8.05;;;3.80;;
61531;SDS011;47397;48.194;11.632;2023-05-19T01:55:00;7.65;;;3.90;;
61531;SDS011;47397;48.194;11.632;2023-05-19T01:56:01;8.10;;;4.25;;
61531;SDS011;47397;48.194;11.632;2023-05-19T01:57:03;7.07;;;3.95;;
61531;SDS011;47397;48.194;11.632;2023-05-19T01:58:11;9.82;;;4.30;;
61531;SDS011;47397;48.194;11.632;2023-05-19T01:59:21;5.55;;;3.92;;
61531;SDS011;47397;48.194;11.632;2023-05-19T02:00:36;7.60;;;3.58;;
61531;SDS011;47397;48.194;11.632;2023-05-19T02:01:47;7.85;;;3.92;;
61531;SDS011;47397;48.194;11.632;2023-05-19T02:02:54;7.28;;;4.13;;
61531;SDS011;47397;48.194;11.632;2023-05-19T02:04:10;6.68;;;3.50;;
61531;SDS011;47397;48.194;11.632;2023-05-19T02:05:17;6.13;;;3.60;;
61531;SDS011;47397;48.194;11.632;2023-05-19T02:06:27;7.05;;;3.80;;
61531;SDS011;47397;48.194;11.632;2023-05-19T02:07:36;5.57;;;3.78;;
61531;SDS011;47397;48.194;11.632;2023-05-19T02:08:41;4.82;;;3.40;;
61531;SDS011;47397;48.194;11.632;2023-05-19T02:09:50;7.10;;;4.05;;
61531;SDS011;47397;48.194;11.632;2023-05-19T02:10:54;6.93;;;4.20;;
61531;SDS011;47397;48.194;11.632;2023-05-19T02:12:00;6.85;;;3.63;;
61531;SDS011;47397;48.194;11.632;2023-05-19T02:13:04;10.10;;;3.88;;
61531;SDS011;47397;48.194;11.632;2023-05-19T02:14:09;8.20;;;4.18;;
61531;SDS011;47397;48.194;11.632;2023-05-19T02:15:15;8.25;;;4.32;;
61531;SDS011;47397;48.194;11.632;2023-05-19T02:16:17;9.18;;;3.85;;
61531;SDS011;47397;48.194;11.632;2023-05-19T02:17:23;8.02;;;4.50;;
61531;SDS011;47397;48.194;11.632;2023-05-19T02:18:26;7.20;;;3.92;;
61531;SDS011;47397;48.194;11.632;2023-05-19T02:19:30;7.70;;;3.97;;
61531;SDS011;47397;48.194;11.632;2023-05-19T02:20:32;6.28;;;4.00;;
61531;SDS011;47397;48.194;11.632;2023-05-19T02:21:32;8.73;;;4.03;;
61531;SDS011;47397;48.194;11.632;2023-05-19T02:22:33;7.15;;;3.85;;
61531;SDS011;47397;48.194;11.632;2023-05-19T02:23:33;6.28;;;4.07;;
61531;SDS011;47397;48.194;11.632;2023-05-19T02:24:34;6.57;;;4.20;;
61531;SDS011;47397;48.194;11.632;2023-05-19T02:25:34;5.47;;;3.75;;
61531;SDS011;47397;48.194;11.632;2023-05-19T02:26:35;8.90;;;4.30;;
61531;SDS011;47397;48.194;11.632;2023-05-19T02:27:35;6.45;;;4.05;;
61531;SDS011;47397;48.194;11.632;2023-05-19T02:28:37;7.32;;;3.92;;
61531;SDS011;47397;48.194;11.632;2023-05-19T02:29:37;8.25;;;3.88;;
61531;SDS011;47397;48.194;11.632;2023-05-19T02:30:38;7.72;;;4.15;;
61531;SDS011;47397;48.194;11.632;2023-05-19T02:31:38;7.55;;;4.10;;
61531;SDS011;47397;48.194;11.632;2023-05-19T02:32:40;10.25;;;4.10;;
61531;SDS011;47397;48.194;11.632;2023-05-19T02:33:40;10.18;;;4.32;;
61531;SDS011;47397;48.194;11.632;2023-05-19T02:34:41;7.10;;;3.83;;
61531;SDS011;47397;48.194;11.632;2023-05-19T02:35:41;9.50;;;3.72;;
61531;SDS011;47397;48.194;11.632;2023-05-19T02:36:41;6.97;;;4.47;;
61531;SDS011;47397;48.194;11.632;2023-05-19T02:37:42;9.32;;;4.47;;
61531;SDS011;47397;48.194;11.632;2023-05-19T02:38:43;6.00;;;3.85;;
61531;SDS011;47397;48.194;11.632;2023-05-19T02:39:43;7.20;;;3.85;;
61531;SDS011;47397;48.194;11.632;2023-05-19T02:40:44;6.43;;;3.78;;
61531;SDS011;47397;48.194;11.632;2023-05-19T02:41:44;6.32;;;3.80;;
61531;SDS011;47397;48.194;11.632;2023-05-19T02:42:44;7.20;;;3.70;;
61531;SDS011;47397;48.194;11.632;2023-05-19T02:43:45;6.25;;;3.50;;
61531;SDS011;47397;48.194;11.632;2023-05-19T02:44:45;9.57;;;4.63;;
61531;SDS011;47397;48.194;11.632;2023-05-19T02:45:46;6.72;;;4.10;;
61531;SDS011;47397;48.194;11.632;2023-05-19T02:46:46;6.25;;;3.72;;
61531;SDS011;47397;48.194;11.632;2023-05-19T02:47:48;6.13;;;4.03;;
61531;SDS011;47397;48.194;11.632;2023-05-19T02:48:49;6.05;;;4.78;;
61531;SDS011;47397;48.194;11.632;2023-05-19T02:49:49;7.30;;;3.78;;
61531;SDS011;47397;48.194;11.632;2023-05-19T02:50:49;9.27;;;4.47;;
61531;SDS011;47397;48.194;11.632;2023-05-19T02:51:50;6.65;;;3.97;;
61531;SDS011;47397;48.194;11.632;2023-05-19T02:52:50;6.25;;;3.97;;
61531;SDS011;47397;48.194;11.632;2023-05-19T02:53:51;7.18;;;4.40;;
61531;SDS011;47397;48.194;11.632;2023-05-19T02:54:51;8.13;;;4.47;;
61531;SDS011;47397;48.194;11.632;2023-05-19T02:55:52;7.95;;;4.07;;
61531;SDS011;47397;48.194;11.632;2023-05-19T02:56:52;7.85;;;4.28;;
61531;SDS011;47397;48.194;11.632;2023-05-19T02:57:53;6.30;;;4.05;;
61531;SDS011;47397;48.194;11.632;2023-05-19T02:58:53;6.32;;;3.80;;
61531;SDS011;47397;48.194;11.632;2023-05-19T02:59:53;7.80;;;4.40;;
61531;SDS011;47397;48.194;11.632;2023-05-19T03:00:54;14.18;;;5.03;;
61531;SDS011;47397;48.194;11.632;2023-05-19T03:01:55;7.22;;;4.68;;
61531;SDS011;47397;48.194;11.632;2023-05-19T03:03:00;9.40;;;4.22;;
61531;SDS011;47397;48.194;11.632;2023-05-19T03:04:01;10.48;;;4.65;;
61531;SDS011;47397;48.194;11.632;2023-05-19T03:05:01;7.82;;;4.40;;
61531;SDS011;47397;48.194;11.632;2023-05-19T03:06:02;9.07;;;5.15;;
61531;SDS011;47397;48.194;11.632;2023-05-19T03:07:03;7.88;;;4.50;;
61531;SDS011;47397;48.194;11.632;2023-05-19T03:08:04;7.05;;;3.85;;
61531;SDS011;47397;48.194;11.632;2023-05-19T03:09:04;9.05;;;4.05;;
61531;SDS011;47397;48.194;11.632;2023-05-19T03:10:05;7.50;;;4.47;;
61531;SDS011;47397;48.194;11.632;2023-05-19T03:11:06;6.32;;;4.40;;
61531;SDS011;47397;48.194;11.632;2023-05-19T03:12:07;7.13;;;4.22;;
61531;SDS011;47397;48.194;11.632;2023-05-19T03:13:07;8.23;;;4.10;;
61531;SDS011;47397;48.194;11.632;2023-05-19T03:14:08;7.68;;;4.40;;
61531;SDS011;47397;48.194;11.632;2023-05-19T03:15:08;6.55;;;4.30;;
61531;SDS011;47397;48.194;11.632;2023-05-19T03:16:10;6.88;;;3.88;;
61531;SDS011;47397;48.194;11.632;2023-05-19T03:17:10;9.43;;;4.82;;
61531;SDS011;47397;48.194;11.632;2023-05-19T03:18:12;7.90;;;4.40;;
61531;SDS011;47397;48.194;11.632;2023-05-19T03:19:12;6.82;;;4.15;;
61531;SDS011;47397;48.194;11.632;2023-05-19T03:20:13;6.65;;;4.07;;
61531;SDS011;47397;48.194;11.632;2023-05-19T03:21:13;7.72;;;4.10;;
61531;SDS011;47397;48.194;11.632;2023-05-19T03:22:14;7.55;;;4.05;;
61531;SDS011;47397;48.194;11.632;2023-05-19T03:23:14;8.45;;;4.32;;
61531;SDS011;47397;48.194;11.632;2023-05-19T03:24:14;8.05;;;4.05;;
61531;SDS011;47397;48.194;11.632;2023-05-19T03:25:15;7.88;;;4.85;;
61531;SDS011;47397;48.194;11.632;2023-05-19T03:26:15;8.05;;;4.10;;
61531;SDS011;47397;48.194;11.632;2023-05-19T03:27:16;7.47;;;4.60;;
61531;SDS011;47397;48.194;11.632;2023-05-19T03:28:16;7.05;;;4.35;;
61531;SDS011;47397;48.194;11.632;2023-05-19T03:29:17;8.52;;;4.43;;
61531;SDS011;47397;48.194;11.632;2023-05-19T03:30:17;10.20;;;4.93;;
61531;SDS011;47397;48.194;11.632;2023-05-19T03:31:17;8.98;;;4.25;;
61531;SDS011;47397;48.194;11.632;2023-05-19T03:32:18;7.82;;;4.75;;
61531;SDS011;47397;48.194;11.632;2023-05-19T03:33:20;7.82;;;4.50;;
61531;SDS011;47397;48.194;11.632;2023-05-19T03:34:20;9.07;;;4.75;;
61531;SDS011;47397;48.194;11.632;2023-05-19T03:35:21;6.20;;;4.60;;
61531;SDS011;47397;48.194;11.632;2023-05-19T03:36:21;7.63;;;4.57;;
61531;SDS011;47397;48.194;11.632;2023-05-19T03:37:22;8.02;;;4.93;;
61531;SDS011;47397;48.194;11.632;2023-05-19T03:38:22;8.02;;;4.80;;
61531;SDS011;47397;48.194;11.632;2023-05-19T03:39:22;7.07;;;4.60;;
61531;SDS011;47397;48.194;11.632;2023-05-19T03:40:23;7.40;;;4.65;;
61531;SDS011;47397;48.194;11.632;2023-05-19T03:41:23;8.70;;;4.78;;
61531;SDS011;47397;48.194;11.632;2023-05-19T03:42:24;7.55;;;4.60;;
61531;SDS011;47397;48.194;11.632;2023-05-19T03:43:24;6.43;;;4.00;;
61531;SDS011;47397;48.194;11.632;2023-05-19T03:44:25;7.68;;;4.35;;
61531;SDS011;47397;48.194;11.632;2023-05-19T03:45:25;9.77;;;4.70;;
61531;SDS011;47397;48.194;11.632;2023-05-19T03:46:25;7.63;;;4.20;;
61531;SDS011;47397;48.194;11.632;2023-05-19T03:47:26;7.20;;;4.80;;
61531;SDS011;47397;48.194;11.632;2023-05-19T03:48:28;9.13;;;4.13;;
61531;SDS011;47397;48.194;11.632;2023-05-19T03:49:28;8.20;;;4.15;;
61531;SDS011;47397;48.194;11.632;2023-05-19T03:50:28;9.75;;;4.45;;
61531;SDS011;47397;48.194;11.632;2023-05-19T03:51:29;6.93;;;4.38;;
61531;SDS011;47397;48.194;11.632;2023-05-19T03:52:29;6.78;;;4.13;;
61531;SDS011;47397;48.194;11.632;2023-05-19T03:53:30;10.00;;;4.60;;
61531;SDS011;47397;48.194;11.632;2023-05-19T03:54:30;9.43;;;4.85;;
61531;SDS011;47397;48.194;11.632;2023-05-19T03:55:30;8.68;;;4.60;;
61531;SDS011;47397;48.194;11.632;2023-05-19T03:56:31;9.25;;;5.00;;
61531;SDS011;47397;48.194;11.632;2023-05-19T03:57:31;7.35;;;4.95;;
61531;SDS011;47397;48.194;11.632;2023-05-19T03:58:32;8.57;;;4.70;;
61531;SDS011;47397;48.194;11.632;2023-05-19T03:59:32;10.77;;;5.18;;
61531;SDS011;47397;48.194;11.632;2023-05-19T04:00:33;8.32;;;4.25;;
61531;SDS011;47397;48.194;11.632;2023-05-19T04:01:33;12.10;;;4.55;;
61531;SDS011;47397;48.194;11.632;2023-05-19T04:02:34;11.38;;;4.55;;
61531;SDS011;47397;48.194;11.632;2023-05-19T04:03:35;6.13;;;4.50;;
61531;SDS011;47397;48.194;11.632;2023-05-19T04:04:36;7.38;;;4.40;;
61531;SDS011;47397;48.194;11.632;2023-05-19T04:05:36;7.50;;;4.32;;
61531;SDS011;47397;48.194;11.632;2023-05-19T04:06:37;7.82;;;4.35;;
61531;SDS011;47397;48.194;11.632;2023-05-19T04:07:37;6.32;;;4.65;;
61531;SDS011;47397;48.194;11.632;2023-05-19T04:08:37;6.93;;;4.30;;
61531;SDS011;47397;48.194;11.632;2023-05-19T04:09:38;7.10;;;4.65;;
61531;SDS011;47397;48.194;11.632;2023-05-19T04:10:38;8.02;;;4.65;;
61531;SDS011;47397;48.194;11.632;2023-05-19T04:11:39;8.50;;;4.60;;
61531;SDS011;47397;48.194;11.632;2023-05-19T04:12:39;8.05;;;4.80;;
61531;SDS011;47397;48.194;11.632;2023-05-19T04:13:40;7.10;;;5.15;;
61531;SDS011;47397;48.194;11.632;2023-05-19T04:14:40;6.70;;;4.43;;
61531;SDS011;47397;48.194;11.632;2023-05-19T04:15:41;7.80;;;4.68;;
61531;SDS011;47397;48.194;11.632;2023-05-19T04:16:41;7.38;;;4.70;;
61531;SDS011;47397;48.194;11.632;2023-05-19T04:17:41;9.02;;;4.65;;
61531;SDS011;47397;48.194;11.632;2023-05-19T04:18:43;7.20;;;4.40;;
61531;SDS011;47397;48.194;11.632;2023-05-19T04:19:44;6.63;;;4.28;;
61531;SDS011;47397;48.194;11.632;2023-05-19T04:20:44;8.70;;;4.43;;
61531;SDS011;47397;48.194;11.632;2023-05-19T04:21:44;8.05;;;4.80;;
61531;SDS011;47397;48.194;11.632;2023-05-19T04:22:45;8.02;;;4.70;;
61531;SDS011;47397;48.194;11.632;2023-05-19T04:23:45;7.07;;;4.70;;
61531;SDS011;47397;48.194;11.632;2023-05-19T04:24:46;8.48;;;4.47;;
61531;SDS011;47397;48.194;11.632;2023-05-19T04:25:46;5.93;;;4.40;;
61531;SDS011;47397;48.194;11.632;2023-05-19T04:26:47;8.45;;;4.30;;
61531;SDS011;47397;48.194;11.632;2023-05-19T04:27:47;6.15;;;4.38;;
61531;SDS011;47397;48.194;11.632;2023-05-19T04:28:48;7.47;;;4.25;;
61531;SDS011;47397;48.194;11.632;2023-05-19T04:29:48;8.15;;;4.82;;
61531;SDS011;47397;48.194;11.632;2023-05-19T04:30:49;7.15;;;4.13;;
61531;SDS011;47397;48.194;11.632;2023-05-19T04:31:49;7.32;;;4.30;;
61531;SDS011;47397;48.194;11.632;2023-05-19T04:32:50;10.18;;;4.88;;
61531;SDS011;47397;48.194;11.632;2023-05-19T04:33:51;6.57;;;4.32;;
61531;SDS011;47397;48.194;11.632;2023-05-19T04:34:52;7.38;;;4.70;;
61531;SDS011;47397;48.194;11.632;2023-05-19T04:35:52;6.55;;;4.43;;
61531;SDS011;47397;48.194;11.632;2023-05-19T04:36:53;8.50;;;4.35;;
61531;SDS011;47397;48.194;11.632;2023-05-19T04:37:53;8.52;;;4.88;;
61531;SDS011;47397;48.194;11.632;2023-05-19T04:38:54;7.13;;;4.68;;
61531;SDS011;47397;48.194;11.632;2023-05-19T04:39:54;8.27;;;4.78;;
61531;SDS011;47397;48.194;11.632;2023-05-19T04:40:54;8.52;;;4.43;;
61531;SDS011;47397;48.194;11.632;2023-05-19T04:41:55;7.78;;;5.10;;
61531;SDS011;47397;48.194;11.632;2023-05-19T04:42:55;6.13;;;4.50;;
61531;SDS011;47397;48.194;11.632;2023-05-19T04:43:56;7.22;;;4.80;;
61531;SDS011;47397;48.194;11.632;2023-05-19T04:44:56;9.43;;;4.60;;
61531;SDS011;47397;48.194;11.632;2023-05-19T04:45:57;9.15;;;4.70;;
61531;SDS011;47397;48.194;11.632;2023-05-19T04:46:57;6.88;;;4.80;;
61531;SDS011;47397;48.194;11.632;2023-05-19T04:47:57;6.30;;;4.65;;
61531;SDS011;47397;48.194;11.632;2023-05-19T04:49:00;9.18;;;4.57;;
61531;SDS011;47397;48.194;11.632;2023-05-19T04:50:00;6.78;;;4.13;;
61531;SDS011;47397;48.194;11.632;2023-05-19T04:51:01;10.75;;;4.85;;
61531;SDS011;47397;48.194;11.632;2023-05-19T04:52:01;8.13;;;4.97;;
61531;SDS011;47397;48.194;11.632;2023-05-19T04:53:02;9.13;;;5.10;;
61531;SDS011;47397;48.194;11.632;2023-05-19T04:54:02;8.15;;;4.75;;
61531;SDS011;47397;48.194;11.632;2023-05-19T04:55:03;6.35;;;4.45;;
61531;SDS011;47397;48.194;11.632;2023-05-19T04:56:04;8.35;;;5.15;;
61531;SDS011;47397;48.194;11.632;2023-05-19T04:57:05;6.47;;;4.43;;
61531;SDS011;47397;48.194;11.632;2023-05-19T04:58:05;9.05;;;4.80;;
61531;SDS011;47397;48.194;11.632;2023-05-19T04:59:06;6.70;;;4.50;;
61531;SDS011;47397;48.194;11.632;2023-05-19T05:00:07;6.88;;;4.97;;
61531;SDS011;47397;48.194;11.632;2023-05-19T05:01:08;8.45;;;4.65;;
61531;SDS011;47397;48.194;11.632;2023-05-19T05:02:08;9.02;;;4.63;;
61531;SDS011;47397;48.194;11.632;2023-05-19T05:03:09;6.10;;;4.80;;
61531;SDS011;47397;48.194;11.632;2023-05-19T05:04:11;7.70;;;4.53;;
61531;SDS011;47397;48.194;11.632;2023-05-19T05:05:11;8.52;;;4.60;;
61531;SDS011;47397;48.194;11.632;2023-05-19T05:06:11;5.43;;;4.50;;
61531;SDS011;47397;48.194;11.632;2023-05-19T05:07:12;8.60;;;4.22;;
61531;SDS011;47397;48.194;11.632;2023-05-19T05:08:12;6.90;;;4.40;;
61531;SDS011;47397;48.194;11.632;2023-05-19T05:09:13;7.05;;;4.47;;
61531;SDS011;47397;48.194;11.632;2023-05-19T05:10:13;7.65;;;4.82;;
61531;SDS011;47397;48.194;11.632;2023-05-19T05:11:14;7.88;;;4.45;;
61531;SDS011;47397;48.194;11.632;2023-05-19T05:12:16;7.40;;;4.75;;
61531;SDS011;47397;48.194;11.632;2023-05-19T05:13:17;7.72;;;4.60;;
61531;SDS011;47397;48.194;11.632;2023-05-19T05:14:18;6.07;;;4.30;;
61531;SDS011;47397;48.194;11.632;2023-05-19T05:15:19;8.43;;;4.57;;
61531;SDS011;47397;48.194;11.632;2023-05-19T05:16:21;10.68;;;4.57;;
61531;SDS011;47397;48.194;11.632;2023-05-19T05:17:22;8.85;;;4.93;;
61531;SDS011;47397;48.194;11.632;2023-05-19T05:18:23;9.02;;;5.25;;
61531;SDS011;47397;48.194;11.632;2023-05-19T05:19:25;6.55;;;4.65;;
61531;SDS011;47397;48.194;11.632;2023-05-19T05:20:26;7.97;;;4.78;;
61531;SDS011;47397;48.194;11.632;2023-05-19T05:21:27;10.00;;;4.82;;
61531;SDS011;47397;48.194;11.632;2023-05-19T05:22:28;7.90;;;4.75;;
61531;SDS011;47397;48.194;11.632;2023-05-19T05:23:29;8.02;;;4.80;;
61531;SDS011;47397;48.194;11.632;2023-05-19T05:24:30;7.65;;;4.63;;
61531;SDS011;47397;48.194;11.632;2023-05-19T05:25:31;8.02;;;4.53;;
61531;SDS011;47397;48.194;11.632;2023-05-19T05:26:32;7.25;;;4.28;;
61531;SDS011;47397;48.194;11.632;2023-05-19T05:27:34;9.10;;;4.93;;
61531;SDS011;47397;48.194;11.632;2023-05-19T05:28:34;7.85;;;4.47;;
61531;SDS011;47397;48.194;11.632;2023-05-19T05:29:35;7.32;;;4.50;;
61531;SDS011;47397;48.194;11.632;2023-05-19T05:30:35;8.05;;;4.78;;
61531;SDS011;47397;48.194;11.632;2023-05-19T05:31:36;8.00;;;4.88;;
61531;SDS011;47397;48.194;11.632;2023-05-19T05:32:36;7.88;;;5.20;;
61531;SDS011;47397;48.194;11.632;2023-05-19T05:33:37;8.75;;;4.70;;
61531;SDS011;47397;48.194;11.632;2023-05-19T05:34:39;7.60;;;5.22;;
61531;SDS011;47397;48.194;11.632;2023-05-19T05:35:40;8.45;;;4.68;;
61531;SDS011;47397;48.194;11.632;2023-05-19T05:36:40;9.07;;;4.85;;
61531;SDS011;47397;48.194;11.632;2023-05-19T05:37:41;7.57;;;4.68;;
61531;SDS011;47397;48.194;11.632;2023-05-19T05:38:41;6.75;;;4.65;;
61531;SDS011;47397;48.194;11.632;2023-05-19T05:39:41;8.10;;;4.80;;
61531;SDS011;47397;48.194;11.632;2023-05-19T05:40:42;8.23;;;4.43;;
61531;SDS011;47397;48.194;11.632;2023-05-19T05:41:42;6.53;;;4.40;;
61531;SDS011;47397;48.194;11.632;2023-05-19T05:42:43;8.88;;;5.30;;
61531;SDS011;47397;48.194;11.632;2023-05-19T05:43:43;8.23;;;4.80;;
61531;SDS011;47397;48.194;11.632;2023-05-19T05:44:43;7.25;;;4.68;;
61531;SDS011;47397;48.194;11.632;2023-05-19T05:45:44;8.45;;;4.80;;
61531;SDS011;47397;48.194;11.632;2023-05-19T05:46:45;7.90;;;4.28;;
61531;SDS011;47397;48.194;11.632;2023-05-19T05:47:46;7.85;;;4.55;;
61531;SDS011;47397;48.194;11.632;2023-05-19T05:48:46;8.13;;;4.97;;
61531;SDS011;47397;48.194;11.632;2023-05-19T05:49:49;7.03;;;4.60;;
61531;SDS011;47397;48.194;11.632;2023-05-19T05:50:50;9.68;;;4.63;;
61531;SDS011;47397;48.194;11.632;2023-05-19T05:51:51;8.68;;;4.93;;
61531;SDS011;47397;48.194;11.632;2023-05-19T05:52:52;8.13;;;4.25;;
61531;SDS011;47397;48.194;11.632;2023-05-19T05:53:54;8.50;;;4.43;;
61531;SDS011;47397;48.194;11.632;2023-05-19T05:54:56;8.13;;;4.30;;
61531;SDS011;47397;48.194;11.632;2023-05-19T05:56:00;7.25;;;4.43;;
61531;SDS011;47397;48.194;11.632;2023-05-19T05:57:01;8.88;;;4.38;;
61531;SDS011;47397;48.194;11.632;2023-05-19T05:58:01;8.00;;;4.78;;
61531;SDS011;47397;48.194;11.632;2023-05-19T05:59:02;10.82;;;4.70;;
61531;SDS011;47397;48.194;11.632;2023-05-19T06:00:02;8.55;;;4.82;;
61531;SDS011;47397;48.194;11.632;2023-05-19T06:01:03;8.55;;;4.38;;
61531;SDS011;47397;48.194;11.632;2023-05-19T06:02:04;9.13;;;4.38;;
61531;SDS011;47397;48.194;11.632;2023-05-19T06:03:04;7.95;;;4.68;;
61531;SDS011;47397;48.194;11.632;2023-05-19T06:04:05;9.02;;;4.93;;
61531;SDS011;47397;48.194;11.632;2023-05-19T06:05:07;8.90;;;4.70;;